sensor_id;sensor_type;location;lat;lon;timestamp;P1;durP1;ratioP1;P2;durP2;ratioP2
46845;SDS011;33947;46.804;134.252;2024-02-14T00:01:02;34.70;;;13.73;;
46845;SDS011;33947;46.804;134.252;2024-02-14T00:04:14;20.30;;;9.48;;
46845;SDS011;33947;46.804;134.252;2024-02-14T00:07:22;16.63;;;8.93;;
46845;SDS011;33947;46.804;134.252;2024-02-14T00:10:30;18.38;;;8.63;;
46845;SDS011;33947;46.804;134.252;2024-02-14T00:13:37;23.15;;;10.98;;
46845;SDS011;33947;46.804;134.252;2024-02-14T00:16:45;17.30;;;8.73;;
46845;SDS011;33947;46.804;134.252;2024-02-14T00:19:54;23.00;;;12.23;;
46845;SDS011;33947;46.804;134.252;2024-02-14T00:23:01;21.52;;;11.48;;
46845;SDS011;33947;46.804;134.252;2024-02-14T00:26:09;26.33;;;13.93;;
46845;SDS011;33947;46.804;134.252;2024-02-14T00:29:17;19.27;;;8.98;;
46845;SDS011;33947;46.804;134.252;2024-02-14T00:32:24;22.05;;;7.63;;
46845;SDS011;33947;46.804;134.252;2024-02-14T00:35:33;26.05;;;11.95;;
46845;SDS011;33947;46.804;134.252;2024-02-14T00:38:40;46.03;;;17.55;;
46845;SDS011;33947;46.804;134.252;2024-02-14T00:41:49;25.83;;;11.57;;
46845;SDS011;33947;46.804;134.252;2024-02-14T00:44:57;27.55;;;11.73;;
46845;SDS011;33947;46.804;134.252;2024-02-14T00:48:06;17.17;;;9.13;;
46845;SDS011;33947;46.804;134.252;2024-02-14T00:51:16;20.13;;;9.80;;
46845;SDS011;33947;46.804;134.252;2024-02-14T00:54:24;16.45;;;8.38;;
46845;SDS011;33947;46.804;134.252;2024-02-14T00:57:31;21.88;;;9.38;;
46845;SDS011;33947;46.804;134.252;2024-02-14T01:00:39;36.22;;;17.30;;
46845;SDS011;33947;46.804;134.252;2024-02-14T01:03:47;66.35;;;30.00;;
46845;SDS011;33947;46.804;134.252;2024-02-14T01:06:56;69.13;;;31.27;;
46845;SDS011;33947;46.804;134.252;2024-02-14T01:10:04;32.50;;;16.20;;
46845;SDS011;33947;46.804;134.252;2024-02-14T01:13:12;27.58;;;16.63;;
46845;SDS011;33947;46.804;134.252;2024-02-14T01:16:19;31.95;;;20.15;;
46845;SDS011;33947;46.804;134.252;2024-02-14T01:19:26;28.73;;;15.32;;
46845;SDS011;33947;46.804;134.252;2024-02-14T01:22:34;18.33;;;10.63;;
46845;SDS011;33947;46.804;134.252;2024-02-14T01:25:56;18.42;;;8.68;;
46845;SDS011;33947;46.804;134.252;2024-02-14T01:29:03;38.47;;;15.35;;
46845;SDS011;33947;46.804;134.252;2024-02-14T01:32:10;21.92;;;10.98;;
46845;SDS011;33947;46.804;134.252;2024-02-14T01:35:17;27.85;;;11.88;;
46845;SDS011;33947;46.804;134.252;2024-02-14T01:38:26;23.02;;;10.63;;
46845;SDS011;33947;46.804;134.252;2024-02-14T01:41:43;24.85;;;10.93;;
46845;SDS011;33947;46.804;134.252;2024-02-14T01:44:52;40.22;;;17.88;;
46845;SDS011;33947;46.804;134.252;2024-02-14T01:48:00;18.98;;;9.82;;
46845;SDS011;33947;46.804;134.252;2024-02-14T01:51:08;17.30;;;8.43;;
46845;SDS011;33947;46.804;134.252;2024-02-14T01:54:20;18.65;;;9.40;;
46845;SDS011;33947;46.804;134.252;2024-02-14T01:57:28;18.05;;;8.95;;
46845;SDS011;33947;46.804;134.252;2024-02-14T02:00:35;21.88;;;10.32;;
46845;SDS011;33947;46.804;134.252;2024-02-14T02:03:47;21.45;;;9.77;;
46845;SDS011;33947;46.804;134.252;2024-02-14T02:06:55;25.02;;;10.63;;
46845;SDS011;33947;46.804;134.252;2024-02-14T02:10:03;23.75;;;11.52;;
46845;SDS011;33947;46.804;134.252;2024-02-14T02:13:16;22.63;;;9.25;;
46845;SDS011;33947;46.804;134.252;2024-02-14T02:16:45;19.45;;;9.70;;
46845;SDS011;33947;46.804;134.252;2024-02-14T02:20:11;18.58;;;9.73;;
46845;SDS011;33947;46.804;134.252;2024-02-14T02:23:21;18.20;;;9.38;;
46845;SDS011;33947;46.804;134.252;2024-02-14T02:26:29;19.45;;;8.95;;
46845;SDS011;33947;46.804;134.252;2024-02-14T02:29:56;20.58;;;9.88;;
46845;SDS011;33947;46.804;134.252;2024-02-14T02:33:07;21.90;;;9.23;;
46845;SDS011;33947;46.804;134.252;2024-02-14T02:36:15;18.48;;;9.68;;
46845;SDS011;33947;46.804;134.252;2024-02-14T02:39:44;19.70;;;9.00;;
46845;SDS011;33947;46.804;134.252;2024-02-14T02:43:09;58.03;;;29.08;;
46845;SDS011;33947;46.804;134.252;2024-02-14T02:46:36;30.55;;;16.92;;
46845;SDS011;33947;46.804;134.252;2024-02-14T02:50:09;52.03;;;23.92;;
46845;SDS011;33947;46.804;134.252;2024-02-14T02:53:36;18.77;;;9.48;;
46845;SDS011;33947;46.804;134.252;2024-02-14T02:57:05;18.92;;;11.27;;
46845;SDS011;33947;46.804;134.252;2024-02-14T03:00:14;23.50;;;11.95;;
46845;SDS011;33947;46.804;134.252;2024-02-14T03:03:39;20.70;;;12.32;;
46845;SDS011;33947;46.804;134.252;2024-02-14T03:07:06;24.25;;;10.80;;
46845;SDS011;33947;46.804;134.252;2024-02-14T03:10:33;21.73;;;11.18;;
46845;SDS011;33947;46.804;134.252;2024-02-14T03:14:02;16.27;;;7.78;;
46845;SDS011;33947;46.804;134.252;2024-02-14T03:17:31;18.05;;;8.88;;
46845;SDS011;33947;46.804;134.252;2024-02-14T03:20:38;18.33;;;9.70;;
46845;SDS011;33947;46.804;134.252;2024-02-14T03:23:45;22.58;;;10.40;;
46845;SDS011;33947;46.804;134.252;2024-02-14T03:26:53;18.13;;;9.50;;
46845;SDS011;33947;46.804;134.252;2024-02-14T03:30:02;18.52;;;8.65;;
46845;SDS011;33947;46.804;134.252;2024-02-14T03:33:11;23.90;;;11.18;;
46845;SDS011;33947;46.804;134.252;2024-02-14T03:36:19;34.65;;;15.15;;
46845;SDS011;33947;46.804;134.252;2024-02-14T03:39:28;22.15;;;10.50;;
46845;SDS011;33947;46.804;134.252;2024-02-14T03:42:35;20.88;;;9.52;;
46845;SDS011;33947;46.804;134.252;2024-02-14T03:45:45;19.77;;;9.90;;
46845;SDS011;33947;46.804;134.252;2024-02-14T03:48:52;18.67;;;8.75;;
46845;SDS011;33947;46.804;134.252;2024-02-14T03:51:59;18.83;;;9.00;;
46845;SDS011;33947;46.804;134.252;2024-02-14T03:55:13;17.98;;;8.55;;
46845;SDS011;33947;46.804;134.252;2024-02-14T03:58:21;16.33;;;8.60;;
46845;SDS011;33947;46.804;134.252;2024-02-14T04:01:30;27.27;;;12.25;;
46845;SDS011;33947;46.804;134.252;2024-02-14T04:04:36;26.33;;;13.40;;
46845;SDS011;33947;46.804;134.252;2024-02-14T04:07:43;26.95;;;10.80;;
46845;SDS011;33947;46.804;134.252;2024-02-14T04:10:55;30.75;;;13.27;;
46845;SDS011;33947;46.804;134.252;2024-02-14T04:14:03;27.55;;;11.30;;
46845;SDS011;33947;46.804;134.252;2024-02-14T04:17:12;16.80;;;9.38;;
46845;SDS011;33947;46.804;134.252;2024-02-14T04:20:19;20.10;;;9.68;;
46845;SDS011;33947;46.804;134.252;2024-02-14T04:23:27;30.77;;;12.82;;
46845;SDS011;33947;46.804;134.252;2024-02-14T04:26:35;19.27;;;9.60;;
46845;SDS011;33947;46.804;134.252;2024-02-14T04:29:45;23.83;;;11.07;;
46845;SDS011;33947;46.804;134.252;2024-02-14T04:32:54;19.48;;;9.68;;
46845;SDS011;33947;46.804;134.252;2024-02-14T04:36:01;15.85;;;8.25;;
46845;SDS011;33947;46.804;134.252;2024-02-14T04:39:10;23.75;;;10.70;;
46845;SDS011;33947;46.804;134.252;2024-02-14T04:42:17;30.70;;;12.00;;
46845;SDS011;33947;46.804;134.252;2024-02-14T04:45:24;16.95;;;9.30;;
46845;SDS011;33947;46.804;134.252;2024-02-14T04:48:39;46.15;;;13.75;;
46845;SDS011;33947;46.804;134.252;2024-02-14T04:51:47;22.70;;;9.77;;
46845;SDS011;33947;46.804;134.252;2024-02-14T04:54:54;16.80;;;9.00;;
46845;SDS011;33947;46.804;134.252;2024-02-14T04:58:02;15.80;;;8.40;;
46845;SDS011;33947;46.804;134.252;2024-02-14T05:01:09;21.08;;;9.88;;
46845;SDS011;33947;46.804;134.252;2024-02-14T05:04:19;15.55;;;8.40;;
46845;SDS011;33947;46.804;134.252;2024-02-14T05:07:26;14.77;;;7.57;;
46845;SDS011;33947;46.804;134.252;2024-02-14T05:13:51;14.20;;;8.23;;
46845;SDS011;33947;46.804;134.252;2024-02-14T05:16:57;18.65;;;7.93;;
46845;SDS011;33947;46.804;134.252;2024-02-14T05:20:09;20.85;;;10.82;;
46845;SDS011;33947;46.804;134.252;2024-02-14T05:23:17;15.48;;;8.07;;
46845;SDS011;33947;46.804;134.252;2024-02-14T05:26:24;15.30;;;7.97;;
46845;SDS011;33947;46.804;134.252;2024-02-14T05:29:32;14.75;;;7.85;;
46845;SDS011;33947;46.804;134.252;2024-02-14T05:32:39;15.55;;;8.07;;
46845;SDS011;33947;46.804;134.252;2024-02-14T05:35:48;16.08;;;7.88;;
46845;SDS011;33947;46.804;134.252;2024-02-14T05:38:55;13.43;;;7.50;;
46845;SDS011;33947;46.804;134.252;2024-02-14T05:42:02;14.90;;;7.85;;
46845;SDS011;33947;46.804;134.252;2024-02-14T05:45:10;13.25;;;7.65;;
46845;SDS011;33947;46.804;134.252;2024-02-14T05:48:18;17.27;;;7.47;;
46845;SDS011;33947;46.804;134.252;2024-02-14T05:51:27;13.40;;;7.60;;
46845;SDS011;33947;46.804;134.252;2024-02-14T05:54:34;16.30;;;7.95;;
46845;SDS011;33947;46.804;134.252;2024-02-14T05:57:40;16.45;;;8.05;;
46845;SDS011;33947;46.804;134.252;2024-02-14T06:00:47;17.73;;;7.40;;
46845;SDS011;33947;46.804;134.252;2024-02-14T06:03:54;14.00;;;6.90;;
46845;SDS011;33947;46.804;134.252;2024-02-14T06:07:03;18.35;;;9.35;;
46845;SDS011;33947;46.804;134.252;2024-02-14T06:10:15;14.98;;;6.95;;
46845;SDS011;33947;46.804;134.252;2024-02-14T06:13:23;13.93;;;7.88;;
46845;SDS011;33947;46.804;134.252;2024-02-14T06:16:31;18.20;;;8.15;;
46845;SDS011;33947;46.804;134.252;2024-02-14T06:19:39;15.57;;;7.55;;
46845;SDS011;33947;46.804;134.252;2024-02-14T06:22:48;34.30;;;18.02;;
46845;SDS011;33947;46.804;134.252;2024-02-14T06:26:07;15.45;;;8.27;;
46845;SDS011;33947;46.804;134.252;2024-02-14T06:29:15;14.68;;;7.97;;
46845;SDS011;33947;46.804;134.252;2024-02-14T06:32:22;14.50;;;7.35;;
46845;SDS011;33947;46.804;134.252;2024-02-14T06:35:29;31.40;;;15.70;;
46845;SDS011;33947;46.804;134.252;2024-02-14T06:38:39;17.40;;;8.43;;
46845;SDS011;33947;46.804;134.252;2024-02-14T06:41:47;16.80;;;7.78;;
46845;SDS011;33947;46.804;134.252;2024-02-14T06:44:54;16.85;;;7.65;;
46845;SDS011;33947;46.804;134.252;2024-02-14T06:48:01;15.35;;;8.45;;
46845;SDS011;33947;46.804;134.252;2024-02-14T06:51:09;19.88;;;8.98;;
46845;SDS011;33947;46.804;134.252;2024-02-14T06:54:18;25.30;;;11.88;;
46845;SDS011;33947;46.804;134.252;2024-02-14T06:57:26;23.25;;;11.18;;
46845;SDS011;33947;46.804;134.252;2024-02-14T07:00:33;26.95;;;11.90;;
46845;SDS011;33947;46.804;134.252;2024-02-14T07:03:40;39.70;;;20.35;;
46845;SDS011;33947;46.804;134.252;2024-02-14T07:06:49;40.65;;;17.80;;
46845;SDS011;33947;46.804;134.252;2024-02-14T07:09:58;52.45;;;21.52;;
46845;SDS011;33947;46.804;134.252;2024-02-14T07:13:06;26.17;;;14.35;;
46845;SDS011;33947;46.804;134.252;2024-02-14T07:16:13;13.77;;;7.32;;
46845;SDS011;33947;46.804;134.252;2024-02-14T07:19:21;76.45;;;29.55;;
46845;SDS011;33947;46.804;134.252;2024-02-14T07:22:29;87.63;;;32.92;;
46845;SDS011;33947;46.804;134.252;2024-02-14T07:25:38;52.22;;;20.75;;
46845;SDS011;33947;46.804;134.252;2024-02-14T07:28:45;70.07;;;28.48;;
46845;SDS011;33947;46.804;134.252;2024-02-14T07:31:53;28.58;;;12.73;;
46845;SDS011;33947;46.804;134.252;2024-02-14T07:35:03;31.67;;;15.80;;
46845;SDS011;33947;46.804;134.252;2024-02-14T07:38:10;23.75;;;10.90;;
46845;SDS011;33947;46.804;134.252;2024-02-14T07:41:19;37.45;;;16.65;;
46845;SDS011;33947;46.804;134.252;2024-02-14T07:44:29;24.83;;;12.43;;
46845;SDS011;33947;46.804;134.252;2024-02-14T07:47:37;22.35;;;10.80;;
46845;SDS011;33947;46.804;134.252;2024-02-14T07:50:44;48.03;;;18.27;;
46845;SDS011;33947;46.804;134.252;2024-02-14T07:53:52;33.47;;;13.70;;
46845;SDS011;33947;46.804;134.252;2024-02-14T07:56:59;50.97;;;20.05;;
46845;SDS011;33947;46.804;134.252;2024-02-14T08:00:07;37.65;;;15.85;;
46845;SDS011;33947;46.804;134.252;2024-02-14T08:03:16;32.88;;;15.88;;
46845;SDS011;33947;46.804;134.252;2024-02-14T08:06:24;73.22;;;26.90;;
46845;SDS011;33947;46.804;134.252;2024-02-14T08:09:31;34.42;;;15.40;;
46845;SDS011;33947;46.804;134.252;2024-02-14T08:12:40;103.18;;;33.13;;
46845;SDS011;33947;46.804;134.252;2024-02-14T08:15:47;22.85;;;11.10;;
46845;SDS011;33947;46.804;134.252;2024-02-14T08:18:55;47.42;;;16.48;;
46845;SDS011;33947;46.804;134.252;2024-02-14T08:22:03;71.63;;;27.58;;
46845;SDS011;33947;46.804;134.252;2024-02-14T08:25:11;64.88;;;26.88;;
46845;SDS011;33947;46.804;134.252;2024-02-14T08:28:21;182.43;;;68.72;;
46845;SDS011;33947;46.804;134.252;2024-02-14T08:31:27;115.10;;;39.28;;
46845;SDS011;33947;46.804;134.252;2024-02-14T08:34:34;101.93;;;35.72;;
46845;SDS011;33947;46.804;134.252;2024-02-14T08:37:41;66.35;;;29.23;;
46845;SDS011;33947;46.804;134.252;2024-02-14T08:40:48;65.90;;;29.02;;
46845;SDS011;33947;46.804;134.252;2024-02-14T08:43:59;61.17;;;29.33;;
46845;SDS011;33947;46.804;134.252;2024-02-14T08:47:07;80.78;;;33.90;;
46845;SDS011;33947;46.804;134.252;2024-02-14T08:50:15;56.15;;;24.55;;
46845;SDS011;33947;46.804;134.252;2024-02-14T08:53:22;52.33;;;26.23;;
46845;SDS011;33947;46.804;134.252;2024-02-14T08:56:30;39.60;;;18.00;;
46845;SDS011;33947;46.804;134.252;2024-02-14T08:59:39;71.20;;;31.02;;
46845;SDS011;33947;46.804;134.252;2024-02-14T09:02:48;58.33;;;26.10;;
46845;SDS011;33947;46.804;134.252;2024-02-14T09:05:55;39.28;;;20.10;;
46845;SDS011;33947;46.804;134.252;2024-02-14T09:09:02;32.75;;;17.02;;
46845;SDS011;33947;46.804;134.252;2024-02-14T09:12:13;31.13;;;14.30;;
46845;SDS011;33947;46.804;134.252;2024-02-14T09:15:22;31.48;;;16.67;;
46845;SDS011;33947;46.804;134.252;2024-02-14T09:18:31;50.42;;;21.27;;
46845;SDS011;33947;46.804;134.252;2024-02-14T09:21:39;71.07;;;28.83;;
46845;SDS011;33947;46.804;134.252;2024-02-14T09:24:46;91.18;;;36.97;;
46845;SDS011;33947;46.804;134.252;2024-02-14T09:27:53;67.07;;;26.88;;
46845;SDS011;33947;46.804;134.252;2024-02-14T09:31:01;77.22;;;32.45;;
46845;SDS011;33947;46.804;134.252;2024-02-14T09:34:09;61.80;;;25.33;;
46845;SDS011;33947;46.804;134.252;2024-02-14T09:37:17;48.25;;;21.48;;
46845;SDS011;33947;46.804;134.252;2024-02-14T09:40:24;38.60;;;17.00;;
46845;SDS011;33947;46.804;134.252;2024-02-14T09:43:32;53.55;;;23.42;;
46845;SDS011;33947;46.804;134.252;2024-02-14T09:46:47;49.60;;;22.20;;
46845;SDS011;33947;46.804;134.252;2024-02-14T09:49:55;37.75;;;16.52;;
46845;SDS011;33947;46.804;134.252;2024-02-14T09:53:04;40.53;;;18.10;;
46845;SDS011;33947;46.804;134.252;2024-02-14T09:56:13;135.13;;;40.30;;
46845;SDS011;33947;46.804;134.252;2024-02-14T09:59:23;41.65;;;17.27;;
46845;SDS011;33947;46.804;134.252;2024-02-14T10:02:38;20.88;;;9.70;;
46845;SDS011;33947;46.804;134.252;2024-02-14T10:05:45;21.17;;;11.38;;
46845;SDS011;33947;46.804;134.252;2024-02-14T10:08:52;36.22;;;14.68;;
46845;SDS011;33947;46.804;134.252;2024-02-14T10:12:07;24.80;;;11.10;;
46845;SDS011;33947;46.804;134.252;2024-02-14T10:15:14;17.80;;;9.57;;
46845;SDS011;33947;46.804;134.252;2024-02-14T10:18:25;20.38;;;8.43;;
46845;SDS011;33947;46.804;134.252;2024-02-14T10:21:35;28.17;;;11.80;;
46845;SDS011;33947;46.804;134.252;2024-02-14T10:24:46;44.53;;;16.73;;
46845;SDS011;33947;46.804;134.252;2024-02-14T10:27:54;48.65;;;18.00;;
46845;SDS011;33947;46.804;134.252;2024-02-14T10:31:01;40.60;;;15.88;;
46845;SDS011;33947;46.804;134.252;2024-02-14T10:34:10;37.10;;;14.65;;
46845;SDS011;33947;46.804;134.252;2024-02-14T10:37:19;30.13;;;11.38;;
46845;SDS011;33947;46.804;134.252;2024-02-14T10:40:31;23.35;;;9.60;;
46845;SDS011;33947;46.804;134.252;2024-02-14T10:43:40;60.63;;;20.02;;
46845;SDS011;33947;46.804;134.252;2024-02-14T10:46:49;22.90;;;8.65;;
46845;SDS011;33947;46.804;134.252;2024-02-14T10:50:03;79.97;;;43.35;;
46845;SDS011;33947;46.804;134.252;2024-02-14T10:53:13;79.30;;;36.70;;
46845;SDS011;33947;46.804;134.252;2024-02-14T10:56:22;31.77;;;10.90;;
46845;SDS011;33947;46.804;134.252;2024-02-14T10:59:30;35.80;;;14.18;;
46845;SDS011;33947;46.804;134.252;2024-02-14T11:02:38;58.13;;;29.73;;
46845;SDS011;33947;46.804;134.252;2024-02-14T11:05:48;14.90;;;8.80;;
46845;SDS011;33947;46.804;134.252;2024-02-14T11:08:56;31.13;;;15.90;;
46845;SDS011;33947;46.804;134.252;2024-02-14T11:12:06;45.75;;;20.90;;
46845;SDS011;33947;46.804;134.252;2024-02-14T11:15:16;23.00;;;11.25;;
46845;SDS011;33947;46.804;134.252;2024-02-14T11:18:25;18.35;;;7.80;;
46845;SDS011;33947;46.804;134.252;2024-02-14T11:21:37;24.83;;;9.63;;
46845;SDS011;33947;46.804;134.252;2024-02-14T11:24:47;23.85;;;11.55;;
46845;SDS011;33947;46.804;134.252;2024-02-14T11:27:55;26.75;;;15.10;;
46845;SDS011;33947;46.804;134.252;2024-02-14T11:31:02;20.38;;;13.57;;
46845;SDS011;33947;46.804;134.252;2024-02-14T11:34:11;20.92;;;11.07;;
46845;SDS011;33947;46.804;134.252;2024-02-14T11:37:20;21.48;;;11.25;;
46845;SDS011;33947;46.804;134.252;2024-02-14T11:40:33;25.98;;;12.80;;
46845;SDS011;33947;46.804;134.252;2024-02-14T11:43:50;29.00;;;12.75;;
46845;SDS011;33947;46.804;134.252;2024-02-14T11:46:57;25.63;;;10.57;;
46845;SDS011;33947;46.804;134.252;2024-02-14T11:50:06;25.70;;;10.98;;
46845;SDS011;33947;46.804;134.252;2024-02-14T11:53:17;34.88;;;12.88;;
46845;SDS011;33947;46.804;134.252;2024-02-14T11:56:24;23.25;;;10.25;;
46845;SDS011;33947;46.804;134.252;2024-02-14T11:59:37;26.80;;;11.85;;
46845;SDS011;33947;46.804;134.252;2024-02-14T12:02:44;39.63;;;13.65;;
46845;SDS011;33947;46.804;134.252;2024-02-14T12:05:53;32.85;;;12.90;;
46845;SDS011;33947;46.804;134.252;2024-02-14T12:09:03;40.67;;;15.52;;
46845;SDS011;33947;46.804;134.252;2024-02-14T12:12:21;50.33;;;16.20;;
46845;SDS011;33947;46.804;134.252;2024-02-14T12:15:30;63.33;;;25.63;;
46845;SDS011;33947;46.804;134.252;2024-02-14T12:18:42;223.40;;;83.88;;
46845;SDS011;33947;46.804;134.252;2024-02-14T12:21:49;137.10;;;49.85;;
46845;SDS011;33947;46.804;134.252;2024-02-14T12:24:58;158.98;;;62.30;;
46845;SDS011;33947;46.804;134.252;2024-02-14T12:28:05;114.60;;;43.70;;
46845;SDS011;33947;46.804;134.252;2024-02-14T12:31:21;201.13;;;74.20;;
46845;SDS011;33947;46.804;134.252;2024-02-14T12:34:28;84.63;;;35.10;;
46845;SDS011;33947;46.804;134.252;2024-02-14T12:37:36;104.72;;;39.72;;
46845;SDS011;33947;46.804;134.252;2024-02-14T12:40:45;135.00;;;50.10;;
46845;SDS011;33947;46.804;134.252;2024-02-14T12:43:52;204.85;;;70.93;;
46845;SDS011;33947;46.804;134.252;2024-02-14T12:47:00;214.32;;;80.95;;
46845;SDS011;33947;46.804;134.252;2024-02-14T12:50:07;207.65;;;71.22;;
46845;SDS011;33947;46.804;134.252;2024-02-14T12:53:14;246.50;;;74.63;;
46845;SDS011;33947;46.804;134.252;2024-02-14T12:56:23;208.00;;;67.85;;
46845;SDS011;33947;46.804;134.252;2024-02-14T12:59:30;161.00;;;56.80;;
46845;SDS011;33947;46.804;134.252;2024-02-14T13:02:38;125.88;;;49.60;;
46845;SDS011;33947;46.804;134.252;2024-02-14T13:05:45;115.65;;;43.17;;
46845;SDS011;33947;46.804;134.252;2024-02-14T13:08:52;98.35;;;41.22;;
46845;SDS011;33947;46.804;134.252;2024-02-14T13:12:01;96.93;;;39.33;;
46845;SDS011;33947;46.804;134.252;2024-02-14T13:15:10;107.88;;;44.00;;
46845;SDS011;33947;46.804;134.252;2024-02-14T13:18:17;106.85;;;41.13;;
46845;SDS011;33947;46.804;134.252;2024-02-14T13:21:24;94.35;;;34.58;;
46845;SDS011;33947;46.804;134.252;2024-02-14T13:24:32;89.30;;;32.67;;
46845;SDS011;33947;46.804;134.252;2024-02-14T13:27:40;129.85;;;42.92;;
46845;SDS011;33947;46.804;134.252;2024-02-14T13:30:50;162.68;;;50.22;;
46845;SDS011;33947;46.804;134.252;2024-02-14T13:33:59;152.05;;;46.47;;
46845;SDS011;33947;46.804;134.252;2024-02-14T13:37:08;121.45;;;37.72;;
46845;SDS011;33947;46.804;134.252;2024-02-14T13:40:18;58.58;;;23.25;;
46845;SDS011;33947;46.804;134.252;2024-02-14T13:43:26;81.80;;;30.13;;
46845;SDS011;33947;46.804;134.252;2024-02-14T13:46:33;225.55;;;64.97;;
46845;SDS011;33947;46.804;134.252;2024-02-14T13:49:40;275.83;;;74.93;;
46845;SDS011;33947;46.804;134.252;2024-02-14T13:52:47;219.48;;;69.88;;
46845;SDS011;33947;46.804;134.252;2024-02-14T13:55:55;230.27;;;69.47;;
46845;SDS011;33947;46.804;134.252;2024-02-14T13:59:04;288.77;;;85.45;;
46845;SDS011;33947;46.804;134.252;2024-02-14T14:02:12;384.55;;;108.63;;
46845;SDS011;33947;46.804;134.252;2024-02-14T14:05:19;272.23;;;77.60;;
46845;SDS011;33947;46.804;134.252;2024-02-14T14:08:27;246.23;;;73.78;;
46845;SDS011;33947;46.804;134.252;2024-02-14T14:11:35;274.02;;;80.88;;
46845;SDS011;33947;46.804;134.252;2024-02-14T14:14:44;217.50;;;72.40;;
46845;SDS011;33947;46.804;134.252;2024-02-14T14:17:52;219.38;;;71.03;;
46845;SDS011;33947;46.804;134.252;2024-02-14T14:20:59;262.58;;;85.35;;
46845;SDS011;33947;46.804;134.252;2024-02-14T14:24:09;224.85;;;75.25;;
46845;SDS011;33947;46.804;134.252;2024-02-14T14:27:16;122.63;;;46.30;;
46845;SDS011;33947;46.804;134.252;2024-02-14T14:30:27;133.63;;;44.75;;
46845;SDS011;33947;46.804;134.252;2024-02-14T14:33:34;134.80;;;45.70;;
46845;SDS011;33947;46.804;134.252;2024-02-14T14:36:42;123.13;;;44.90;;
46845;SDS011;33947;46.804;134.252;2024-02-14T14:39:50;108.72;;;37.35;;
46845;SDS011;33947;46.804;134.252;2024-02-14T14:42:57;72.28;;;29.33;;
46845;SDS011;33947;46.804;134.252;2024-02-14T14:46:05;103.40;;;36.70;;
46845;SDS011;33947;46.804;134.252;2024-02-14T14:49:13;130.80;;;44.75;;
46845;SDS011;33947;46.804;134.252;2024-02-14T14:52:20;167.05;;;49.72;;
46845;SDS011;33947;46.804;134.252;2024-02-14T14:58:57;203.63;;;63.25;;
46845;SDS011;33947;46.804;134.252;2024-02-14T15:02:09;108.45;;;39.17;;
46845;SDS011;33947;46.804;134.252;2024-02-14T15:05:16;67.65;;;29.15;;
46845;SDS011;33947;46.804;134.252;2024-02-14T15:08:23;69.00;;;26.98;;
46845;SDS011;33947;46.804;134.252;2024-02-14T15:11:31;71.05;;;27.42;;
46845;SDS011;33947;46.804;134.252;2024-02-14T15:14:38;54.53;;;22.05;;
46845;SDS011;33947;46.804;134.252;2024-02-14T15:17:47;65.40;;;23.58;;
46845;SDS011;33947;46.804;134.252;2024-02-14T15:20:54;66.43;;;24.73;;
46845;SDS011;33947;46.804;134.252;2024-02-14T15:24:02;94.55;;;31.73;;
46845;SDS011;33947;46.804;134.252;2024-02-14T15:27:10;98.10;;;32.60;;
46845;SDS011;33947;46.804;134.252;2024-02-14T15:30:25;64.18;;;22.02;;
46845;SDS011;33947;46.804;134.252;2024-02-14T15:33:51;66.80;;;25.20;;
46845;SDS011;33947;46.804;134.252;2024-02-14T15:36:59;62.55;;;22.67;;
46845;SDS011;33947;46.804;134.252;2024-02-14T15:40:08;53.63;;;19.80;;
46845;SDS011;33947;46.804;134.252;2024-02-14T15:43:16;52.30;;;19.48;;
46845;SDS011;33947;46.804;134.252;2024-02-14T15:46:23;51.95;;;18.20;;
46845;SDS011;33947;46.804;134.252;2024-02-14T15:49:33;46.55;;;17.73;;
46845;SDS011;33947;46.804;134.252;2024-02-14T15:52:39;45.70;;;16.65;;
46845;SDS011;33947;46.804;134.252;2024-02-14T15:55:46;744.70;;;160.02;;
46845;SDS011;33947;46.804;134.252;2024-02-14T15:58:55;53.13;;;17.05;;
46845;SDS011;33947;46.804;134.252;2024-02-14T16:02:02;34.47;;;11.85;;
46845;SDS011;33947;46.804;134.252;2024-02-14T16:05:11;27.83;;;11.38;;
46845;SDS011;33947;46.804;134.252;2024-02-14T16:08:18;30.13;;;10.70;;
46845;SDS011;33947;46.804;134.252;2024-02-14T16:11:28;29.20;;;10.38;;
46845;SDS011;33947;46.804;134.252;2024-02-14T16:14:36;26.65;;;9.05;;
46845;SDS011;33947;46.804;134.252;2024-02-14T16:17:43;41.55;;;12.77;;
46845;SDS011;33947;46.804;134.252;2024-02-14T16:20:53;27.00;;;8.98;;
46845;SDS011;33947;46.804;134.252;2024-02-14T16:24:00;22.05;;;8.85;;
46845;SDS011;33947;46.804;134.252;2024-02-14T16:27:07;26.00;;;10.93;;
46845;SDS011;33947;46.804;134.252;2024-02-14T16:30:15;25.30;;;9.80;;
46845;SDS011;33947;46.804;134.252;2024-02-14T16:33:21;20.58;;;8.90;;
46845;SDS011;33947;46.804;134.252;2024-02-14T16:36:30;35.05;;;12.05;;
46845;SDS011;33947;46.804;134.252;2024-02-14T16:39:37;39.50;;;17.35;;
46845;SDS011;33947;46.804;134.252;2024-02-14T16:42:47;33.35;;;16.08;;
46845;SDS011;33947;46.804;134.252;2024-02-14T16:45:54;35.95;;;15.75;;
46845;SDS011;33947;46.804;134.252;2024-02-14T16:49:01;23.40;;;9.18;;
46845;SDS011;33947;46.804;134.252;2024-02-14T16:52:10;25.00;;;11.27;;
46845;SDS011;33947;46.804;134.252;2024-02-14T16:55:17;22.98;;;8.75;;
46845;SDS011;33947;46.804;134.252;2024-02-14T16:58:24;20.02;;;9.32;;
46845;SDS011;33947;46.804;134.252;2024-02-14T17:01:31;70.72;;;17.90;;
46845;SDS011;33947;46.804;134.252;2024-02-14T17:04:38;40.05;;;15.10;;
46845;SDS011;33947;46.804;134.252;2024-02-14T17:07:47;36.72;;;13.20;;
46845;SDS011;33947;46.804;134.252;2024-02-14T17:10:54;22.13;;;9.63;;
46845;SDS011;33947;46.804;134.252;2024-02-14T17:14:02;22.80;;;9.57;;
46845;SDS011;33947;46.804;134.252;2024-02-14T17:17:12;31.35;;;10.02;;
46845;SDS011;33947;46.804;134.252;2024-02-14T17:20:20;26.27;;;9.40;;
46845;SDS011;33947;46.804;134.252;2024-02-14T17:23:30;26.50;;;10.23;;
46845;SDS011;33947;46.804;134.252;2024-02-14T17:26:39;27.67;;;11.65;;
46845;SDS011;33947;46.804;134.252;2024-02-14T17:29:46;22.60;;;9.15;;
46845;SDS011;33947;46.804;134.252;2024-02-14T17:32:53;28.98;;;9.18;;
46845;SDS011;33947;46.804;134.252;2024-02-14T17:36:02;33.03;;;10.27;;
46845;SDS011;33947;46.804;134.252;2024-02-14T17:39:12;18.08;;;7.75;;
46845;SDS011;33947;46.804;134.252;2024-02-14T17:42:19;21.95;;;9.15;;
46845;SDS011;33947;46.804;134.252;2024-02-14T17:45:26;24.38;;;9.90;;
46845;SDS011;33947;46.804;134.252;2024-02-14T17:48:34;19.83;;;7.82;;
46845;SDS011;33947;46.804;134.252;2024-02-14T17:51:41;25.65;;;10.65;;
46845;SDS011;33947;46.804;134.252;2024-02-14T17:54:53;28.02;;;12.95;;
46845;SDS011;33947;46.804;134.252;2024-02-14T17:58:00;25.27;;;10.15;;
46845;SDS011;33947;46.804;134.252;2024-02-14T18:01:08;25.10;;;9.60;;
46845;SDS011;33947;46.804;134.252;2024-02-14T18:04:15;24.50;;;8.77;;